createdAt,value
2019-01-17T00:00:02.298Z,3.03
2019-01-17T00:01:02.260Z,3.16
2019-01-17T00:02:02.214Z,3.18
2019-01-17T00:03:02.212Z,3.18
2019-01-17T00:04:02.239Z,3.13
2019-01-17T00:05:02.196Z,3.19
2019-01-17T00:06:02.172Z,3.16
2019-01-17T00:07:02.156Z,3.11
2019-01-17T00:08:02.150Z,3.05
2019-01-17T00:09:02.137Z,3.05
2019-01-17T00:10:02.134Z,3.18
2019-01-17T00:11:02.125Z,3.19
2019-01-17T00:12:02.093Z,3.05
2019-01-17T00:13:02.085Z,3.16
2019-01-17T00:14:02.074Z,3.18
2019-01-17T00:15:02.083Z,3.13
2019-01-17T00:16:02.083Z,3.25
2019-01-17T00:17:02.040Z,3.18
2019-01-17T00:18:02.036Z,3.19
2019-01-17T00:19:02.029Z,3.14
2019-01-17T00:20:02.029Z,3.16
2019-01-17T00:21:02.003Z,3.19
2019-01-17T00:22:02.001Z,3.16
2019-01-17T00:23:03.155Z,3.13
2019-01-17T00:24:02.737Z,3.18
2019-01-17T00:25:02.002Z,3.19
2019-01-17T00:26:01.950Z,3.22
2019-01-17T00:27:01.989Z,3.18
2019-01-17T00:28:01.937Z,3.21
2019-01-17T00:29:01.935Z,3.19
2019-01-17T00:30:01.918Z,3.22
2019-01-17T00:31:01.908Z,3.16
2019-01-17T00:32:01.881Z,3.19
2019-01-17T00:33:01.871Z,3.19
2019-01-17T00:34:01.875Z,3.22
2019-01-17T00:35:01.866Z,3.19
2019-01-17T00:36:01.885Z,3.19
2019-01-17T00:37:01.855Z,3.21
2019-01-17T00:38:01.825Z,3.22
2019-01-17T00:39:01.812Z,3.18
2019-01-17T00:40:01.854Z,3.21
2019-01-17T00:41:01.840Z,3.23
2019-01-17T00:42:01.835Z,3.16
2019-01-17T00:43:01.768Z,3.32
2019-01-17T00:44:01.770Z,3.14
2019-01-17T00:45:01.769Z,3.18
2019-01-17T00:46:01.725Z,3.21
2019-01-17T00:47:01.727Z,3.21
2019-01-17T00:48:01.739Z,3.18
2019-01-17T00:49:01.717Z,3.16
2019-01-17T00:50:01.699Z,3.29
2019-01-17T00:51:01.673Z,3.36
2019-01-17T00:52:01.679Z,3.31
2019-01-17T00:53:01.660Z,3.26
2019-01-17T00:54:01.711Z,3.28
2019-01-17T00:55:01.685Z,3.40
2019-01-17T00:56:01.628Z,3.34
2019-01-17T00:57:01.660Z,3.41
2019-01-17T00:58:01.687Z,3.34
2019-01-17T00:59:01.610Z,3.28
2019-01-17T01:00:01.680Z,3.45
2019-01-17T01:01:01.568Z,3.45
2019-01-17T01:02:01.559Z,3.41
2019-01-17T01:03:01.562Z,3.47
2019-01-17T01:04:01.570Z,3.42
2019-01-17T01:05:01.545Z,3.45
2019-01-17T01:06:01.608Z,3.51
2019-01-17T01:07:01.502Z,3.45
2019-01-17T01:08:01.588Z,3.47
2019-01-17T01:09:01.493Z,3.51
2019-01-17T01:10:01.508Z,3.60
2019-01-17T01:11:01.536Z,3.58
2019-01-17T01:12:01.474Z,3.55
2019-01-17T01:13:01.472Z,3.59
2019-01-17T01:14:01.431Z,3.55
2019-01-17T01:15:01.453Z,3.59
2019-01-17T01:16:01.400Z,3.62
2019-01-17T01:17:01.412Z,3.60
2019-01-17T01:18:01.388Z,3.65
2019-01-17T01:19:01.411Z,3.76
2019-01-17T01:20:01.355Z,3.74
2019-01-17T01:21:01.344Z,3.66
2019-01-17T01:22:01.339Z,3.68
2019-01-17T01:23:01.346Z,3.66
2019-01-17T01:24:01.333Z,3.59
2019-01-17T01:25:01.304Z,3.66
2019-01-17T01:26:01.324Z,3.65
2019-01-17T01:27:01.282Z,3.69
2019-01-17T01:28:01.273Z,3.63
2019-01-17T01:29:01.262Z,3.59
2019-01-17T01:30:01.269Z,3.62
2019-01-17T01:31:01.252Z,3.66
2019-01-17T01:32:01.227Z,3.68
2019-01-17T01:33:01.213Z,3.69
2019-01-17T01:34:01.208Z,3.66
2019-01-17T01:35:01.197Z,3.68
2019-01-17T01:36:01.203Z,3.73
2019-01-17T01:37:01.181Z,3.70
2019-01-17T01:38:01.206Z,3.69
2019-01-17T01:39:01.157Z,3.70
2019-01-17T01:40:01.151Z,3.69
2019-01-17T01:41:01.158Z,3.68
2019-01-17T01:42:01.123Z,3.66
2019-01-17T01:43:01.144Z,3.69
2019-01-17T01:44:01.110Z,3.69
2019-01-17T01:45:01.095Z,3.68
2019-01-17T01:46:01.091Z,3.73
2019-01-17T01:47:01.105Z,3.69
2019-01-17T01:48:01.063Z,3.73
2019-01-17T01:49:01.063Z,3.70
2019-01-17T01:50:01.053Z,3.69
2019-01-17T01:51:01.023Z,3.66
2019-01-17T01:52:01.034Z,3.70
2019-01-17T01:53:01.028Z,3.66
2019-01-17T01:54:01.000Z,3.70
2019-01-17T01:55:01.008Z,3.69
2019-01-17T01:56:00.974Z,3.66
2019-01-17T01:57:00.960Z,3.68
2019-01-17T01:58:00.968Z,3.70
2019-01-17T01:59:01.039Z,3.70
2019-01-17T02:00:00.930Z,3.77
2019-01-17T02:01:00.981Z,3.69
2019-01-17T02:02:00.909Z,3.69
2019-01-17T02:03:00.902Z,3.77
2019-01-17T02:04:00.937Z,3.70
2019-01-17T02:05:00.918Z,3.69
2019-01-17T02:06:00.862Z,3.69
2019-01-17T02:07:00.858Z,3.76
2019-01-17T02:08:00.861Z,3.77
2019-01-17T02:09:00.834Z,3.74
2019-01-17T02:10:00.838Z,3.76
2019-01-17T02:11:00.824Z,3.80
2019-01-17T02:12:00.814Z,3.81
2019-01-17T02:13:00.838Z,3.81
2019-01-17T02:14:00.777Z,3.69
2019-01-17T02:15:00.765Z,3.77
2019-01-17T02:16:00.779Z,3.80
2019-01-17T02:17:00.758Z,3.78
2019-01-17T02:18:00.735Z,3.80
2019-01-17T02:19:00.723Z,3.83
2019-01-17T02:20:00.712Z,3.77
2019-01-17T02:21:00.711Z,3.76
2019-01-17T02:22:00.718Z,3.66
2019-01-17T02:23:00.708Z,3.69
2019-01-17T02:24:00.684Z,3.73
2019-01-17T02:25:00.674Z,3.77
2019-01-17T02:26:00.664Z,3.78
2019-01-17T02:27:00.646Z,3.77
2019-01-17T02:28:00.674Z,3.84
2019-01-17T02:29:00.654Z,3.78
2019-01-17T02:30:00.627Z,3.81
2019-01-17T02:31:00.620Z,3.80
2019-01-17T02:32:00.606Z,3.77
2019-01-17T02:33:00.606Z,3.80
2019-01-17T02:34:00.587Z,3.77
2019-01-17T02:35:00.583Z,3.83
2019-01-17T02:36:00.559Z,3.77
2019-01-17T02:37:00.558Z,3.70
2019-01-17T02:38:00.527Z,3.81
2019-01-17T02:39:00.546Z,3.69
2019-01-17T02:40:00.530Z,3.76
2019-01-17T02:41:00.490Z,3.81
2019-01-17T02:42:00.503Z,3.84
2019-01-17T02:43:00.470Z,3.81
2019-01-17T02:44:00.459Z,3.81
2019-01-17T02:45:00.452Z,3.83
2019-01-17T02:46:00.462Z,3.69
2019-01-17T02:47:00.448Z,3.73
2019-01-17T02:48:00.432Z,3.73
2019-01-17T02:49:00.448Z,3.70
2019-01-17T02:50:00.502Z,3.84
2019-01-17T02:51:00.393Z,3.76
2019-01-17T02:52:00.393Z,3.80
2019-01-17T02:53:00.380Z,3.80
2019-01-17T02:54:00.352Z,3.81
2019-01-17T02:55:00.349Z,3.81
2019-01-17T02:56:00.336Z,3.83
2019-01-17T02:57:00.339Z,3.84
2019-01-17T02:58:00.316Z,3.81
2019-01-17T02:59:00.307Z,3.77
2019-01-17T03:00:00.297Z,3.83
2019-01-17T03:01:00.308Z,3.83
2019-01-17T03:02:00.331Z,3.84
2019-01-17T03:03:00.272Z,3.77
2019-01-17T03:04:00.310Z,3.84
2019-01-17T03:05:00.267Z,3.74
2019-01-17T03:06:00.259Z,3.83
2019-01-17T03:07:00.250Z,3.78
2019-01-17T03:08:00.212Z,3.68
2019-01-17T03:09:00.201Z,3.80
2019-01-17T03:10:00.192Z,3.69
2019-01-17T03:11:00.176Z,3.83
2019-01-17T03:12:00.196Z,3.83
2019-01-17T03:13:00.156Z,3.78
2019-01-17T03:14:00.148Z,3.84
2019-01-17T03:15:00.260Z,3.77
2019-01-17T03:16:00.156Z,3.77
2019-01-17T03:17:00.122Z,3.76
2019-01-17T03:18:00.123Z,3.80
2019-01-17T03:19:00.136Z,3.81
2019-01-17T03:20:00.088Z,3.81
2019-01-17T03:21:00.084Z,3.78
2019-01-17T03:22:00.070Z,3.73
2019-01-17T03:23:00.060Z,3.80
2019-01-17T03:24:00.067Z,3.81
2019-01-17T03:25:00.045Z,3.81
2019-01-17T03:26:00.022Z,3.81
2019-01-17T03:27:00.030Z,3.77
2019-01-17T03:28:00.027Z,3.81
2019-01-17T03:29:00.063Z,3.73
2019-01-17T03:30:00.025Z,3.78
2019-01-17T03:31:00.124Z,3.66
2019-01-17T03:31:59.997Z,3.81
2019-01-17T03:32:59.984Z,3.73
2019-01-17T03:33:59.950Z,3.81
2019-01-17T03:34:59.925Z,3.83
2019-01-17T03:35:59.942Z,3.81
2019-01-17T03:36:59.923Z,3.80
2019-01-17T03:37:59.891Z,3.81
2019-01-17T03:38:59.882Z,3.81
2019-01-17T03:39:59.883Z,3.84
2019-01-17T03:40:59.856Z,3.80
2019-01-17T03:41:59.863Z,3.74
2019-01-17T03:42:59.841Z,3.77
2019-01-17T03:43:59.828Z,3.80
2019-01-17T03:44:59.844Z,3.81
2019-01-17T03:45:59.812Z,3.87
2019-01-17T03:46:59.797Z,3.81
2019-01-17T03:47:59.811Z,3.92
2019-01-17T03:48:59.776Z,3.87
2019-01-17T03:49:59.763Z,3.88
2019-01-17T03:50:59.782Z,3.94
2019-01-17T03:51:59.745Z,3.84
2019-01-17T03:52:59.739Z,3.86
2019-01-17T03:53:59.739Z,3.87
2019-01-17T03:54:59.711Z,3.84
2019-01-17T03:55:59.703Z,3.84
2019-01-17T03:56:59.736Z,3.87
2019-01-17T03:57:59.683Z,3.86
2019-01-17T03:58:59.668Z,3.86
2019-01-17T03:59:59.678Z,3.84
2019-01-17T04:00:59.651Z,3.86
2019-01-17T04:01:59.641Z,3.78
2019-01-17T04:02:59.647Z,3.83
2019-01-17T04:03:59.623Z,3.83
2019-01-17T04:04:59.609Z,3.88
2019-01-17T04:05:59.623Z,3.96
2019-01-17T04:06:59.582Z,3.94
2019-01-17T04:07:59.576Z,3.98
2019-01-17T04:08:59.583Z,3.87
2019-01-17T04:09:59.553Z,3.81
2019-01-17T04:10:59.546Z,3.78
2019-01-17T04:11:59.551Z,3.78
2019-01-17T04:12:59.565Z,3.81
2019-01-17T04:13:59.513Z,3.84
2019-01-17T04:14:59.527Z,3.86
2019-01-17T04:15:59.503Z,3.84
2019-01-17T04:16:59.490Z,3.95
2019-01-17T04:17:59.497Z,3.92
2019-01-17T04:18:59.484Z,3.91
2019-01-17T04:19:59.465Z,3.88
2019-01-17T04:20:59.470Z,3.83
2019-01-17T04:21:59.465Z,3.92
2019-01-17T04:22:59.448Z,3.84
2019-01-17T04:23:59.438Z,3.94
2019-01-17T04:24:59.414Z,3.92
2019-01-17T04:25:59.473Z,3.95
2019-01-17T04:26:59.404Z,3.94
2019-01-17T04:27:59.392Z,3.81
2019-01-17T04:28:59.361Z,3.81
2019-01-17T04:29:59.374Z,3.92
2019-01-17T04:30:59.339Z,3.94
2019-01-17T04:31:59.414Z,3.88
2019-01-17T04:32:59.624Z,3.84
2019-01-17T04:33:59.314Z,3.87
2019-01-17T04:34:59.341Z,3.92
2019-01-17T04:35:59.292Z,3.86
2019-01-17T04:36:59.293Z,3.81
2019-01-17T04:37:59.314Z,3.84
2019-01-17T04:38:59.294Z,3.81
2019-01-17T04:39:59.249Z,3.87
2019-01-17T04:40:59.238Z,3.86
2019-01-17T04:41:59.247Z,3.92
2019-01-17T04:42:59.218Z,3.87
2019-01-17T04:43:59.209Z,3.92
2019-01-17T04:44:59.234Z,3.81
2019-01-17T04:45:59.191Z,3.81
2019-01-17T04:46:59.179Z,3.83
2019-01-17T04:47:59.163Z,3.80
2019-01-17T04:48:59.155Z,3.87
2019-01-17T04:49:59.142Z,3.78
2019-01-17T04:50:59.143Z,3.78
2019-01-17T04:51:59.112Z,3.81
2019-01-17T04:52:59.102Z,3.81
2019-01-17T04:53:59.093Z,3.84
2019-01-17T04:55:05.078Z,3.74
2019-01-17T04:56:00.140Z,3.86
2019-01-17T04:56:59.081Z,3.80
2019-01-17T04:57:59.115Z,3.73
2019-01-17T04:58:59.042Z,3.81
2019-01-17T04:59:59.041Z,3.70
2019-01-17T05:00:59.020Z,3.74
2019-01-17T05:01:59.044Z,3.81
2019-01-17T05:02:58.994Z,3.88
2019-01-17T05:03:59.010Z,3.81
2019-01-17T05:04:58.982Z,3.76
2019-01-17T05:05:58.981Z,3.86
2019-01-17T05:06:58.963Z,3.86
2019-01-17T05:07:58.985Z,3.80
2019-01-17T05:08:58.943Z,3.81
2019-01-17T05:09:58.985Z,3.84
2019-01-17T05:10:58.958Z,3.69
2019-01-17T05:11:58.926Z,3.81
2019-01-17T05:12:58.923Z,3.73
2019-01-17T05:13:58.908Z,3.77
2019-01-17T05:14:58.947Z,3.77
2019-01-17T05:15:58.854Z,3.73
2019-01-17T05:16:58.851Z,3.74
2019-01-17T05:17:58.928Z,3.76
2019-01-17T05:18:58.855Z,3.77
2019-01-17T05:19:58.844Z,3.76
2019-01-17T05:20:58.821Z,3.76
2019-01-17T05:21:58.837Z,3.78
2019-01-17T05:22:58.794Z,3.69
2019-01-17T05:23:58.791Z,3.77
2019-01-17T05:24:58.802Z,3.70
2019-01-17T05:25:58.804Z,3.78
2019-01-17T05:26:58.740Z,3.78
2019-01-17T05:27:58.736Z,3.76
2019-01-17T05:28:58.747Z,3.68
2019-01-17T05:29:58.745Z,3.77
2019-01-17T05:30:58.695Z,3.76
2019-01-17T05:31:58.725Z,3.81
2019-01-17T05:32:58.719Z,3.77
2019-01-17T05:33:58.678Z,3.76
2019-01-17T05:34:58.658Z,3.78
2019-01-17T05:35:58.674Z,3.69
2019-01-17T05:36:58.648Z,3.73
2019-01-17T05:37:58.628Z,3.70
2019-01-17T05:38:58.612Z,3.69
2019-01-17T05:39:58.597Z,3.68
2019-01-17T05:40:58.586Z,3.73
2019-01-17T05:41:58.717Z,3.69
2019-01-17T05:42:58.596Z,3.73
2019-01-17T05:43:58.554Z,3.63
2019-01-17T05:44:58.546Z,3.63
2019-01-17T05:45:58.536Z,3.68
2019-01-17T05:46:58.536Z,3.68
2019-01-17T05:47:58.608Z,3.66
2019-01-17T05:48:58.542Z,3.63
2019-01-17T05:49:58.496Z,3.68
2019-01-17T05:50:58.489Z,3.69
2019-01-17T05:51:58.472Z,3.70
2019-01-17T05:52:58.486Z,3.70
2019-01-17T05:53:58.484Z,3.65
2019-01-17T05:54:58.467Z,3.70
2019-01-17T05:55:58.477Z,3.66
2019-01-17T05:56:58.426Z,3.66
2019-01-17T05:57:58.438Z,3.69
2019-01-17T05:58:58.435Z,3.76
2019-01-17T05:59:58.443Z,3.73
2019-01-17T06:00:58.435Z,3.74
2019-01-17T06:01:59.374Z,3.76
2019-01-17T06:02:58.368Z,3.80
2019-01-17T06:03:58.407Z,3.84
2019-01-17T06:04:58.373Z,3.81
2019-01-17T06:05:58.329Z,3.77
2019-01-17T06:06:58.313Z,3.78
2019-01-17T06:07:58.305Z,3.81
2019-01-17T06:08:58.297Z,3.83
2019-01-17T06:09:58.306Z,3.80
2019-01-17T06:10:58.308Z,3.86
2019-01-17T06:11:58.920Z,3.87
2019-01-17T06:12:58.251Z,3.87
2019-01-17T06:13:58.309Z,3.87
2019-01-17T06:14:58.229Z,3.88
2019-01-17T06:15:58.236Z,3.87
2019-01-17T06:16:58.290Z,3.84
2019-01-17T06:17:58.272Z,3.86
2019-01-17T06:18:58.270Z,3.81
2019-01-17T06:19:58.180Z,3.87
2019-01-17T06:20:58.171Z,3.91
2019-01-17T06:21:58.176Z,3.91
2019-01-17T06:22:58.144Z,3.88
2019-01-17T06:23:58.137Z,3.83
2019-01-17T06:24:58.150Z,3.88
2019-01-17T06:25:58.118Z,3.87
2019-01-17T06:27:06.517Z,3.80
2019-01-17T06:27:58.277Z,3.83
2019-01-17T06:28:58.970Z,3.80
2019-01-17T06:29:58.212Z,3.84
2019-01-17T06:30:58.532Z,3.78
2019-01-17T06:31:58.173Z,3.80
2019-01-17T06:32:58.112Z,3.81
2019-01-17T06:34:05.747Z,3.74
2019-01-17T06:34:58.034Z,3.68
2019-01-17T06:35:58.008Z,3.73
2019-01-17T06:36:58.043Z,3.69
2019-01-17T06:37:57.989Z,3.70
2019-01-17T06:38:58.044Z,3.69
2019-01-17T06:39:57.988Z,3.65
2019-01-17T06:40:57.978Z,3.76
2019-01-17T06:41:57.961Z,3.58
2019-01-17T06:42:57.955Z,3.63
2019-01-17T06:43:57.926Z,3.53
2019-01-17T06:44:57.940Z,3.51
2019-01-17T06:45:57.915Z,3.47
2019-01-17T06:46:57.937Z,3.58
2019-01-17T06:47:57.942Z,3.59
2019-01-17T06:48:57.882Z,3.51
2019-01-17T06:49:57.877Z,3.44
2019-01-17T06:50:57.878Z,3.47
2019-01-17T06:51:57.849Z,3.55
2019-01-17T06:52:57.836Z,3.36
2019-01-17T06:53:57.831Z,3.25
2019-01-17T06:54:57.805Z,3.34
2019-01-17T06:55:57.794Z,3.41
2019-01-17T06:56:57.812Z,3.36
2019-01-17T06:57:57.792Z,3.29
2019-01-17T06:58:57.775Z,3.37
2019-01-17T06:59:57.833Z,3.42
2019-01-17T07:00:57.781Z,3.36
2019-01-17T07:01:57.748Z,3.32
2019-01-17T07:02:57.746Z,3.25
2019-01-17T07:03:57.734Z,3.18
2019-01-17T07:04:57.698Z,3.29
2019-01-17T07:05:57.744Z,3.42
2019-01-17T07:06:57.710Z,3.44
2019-01-17T07:07:57.665Z,3.28
2019-01-17T07:08:57.676Z,3.32
2019-01-17T07:09:57.658Z,3.31
2019-01-17T07:10:57.638Z,3.28
2019-01-17T07:11:57.628Z,3.32
2019-01-17T07:12:57.612Z,3.37
2019-01-17T07:13:57.608Z,3.41
2019-01-17T07:14:57.626Z,3.29
2019-01-17T07:15:57.602Z,3.40
2019-01-17T07:16:57.627Z,3.45
2019-01-17T07:17:57.559Z,3.50
2019-01-17T07:18:57.550Z,3.44
2019-01-17T07:19:57.541Z,3.50
2019-01-17T07:20:57.953Z,3.47
2019-01-17T07:21:57.535Z,3.53
2019-01-17T07:22:57.547Z,3.41
2019-01-17T07:23:57.533Z,3.41
2019-01-17T07:24:57.486Z,3.53
2019-01-17T07:25:57.473Z,3.42
2019-01-17T07:26:57.488Z,3.42
2019-01-17T07:27:57.458Z,3.51
2019-01-17T07:28:57.444Z,3.47
2019-01-17T07:29:57.448Z,3.48
2019-01-17T07:30:57.439Z,3.48
2019-01-17T07:31:57.418Z,3.45
2019-01-17T07:32:57.435Z,3.44
2019-01-17T07:33:57.407Z,3.55
2019-01-17T07:34:57.402Z,3.51
2019-01-17T07:35:57.413Z,3.42
2019-01-17T07:36:57.377Z,3.55
2019-01-17T07:37:57.349Z,3.47
2019-01-17T07:38:57.351Z,3.44
2019-01-17T07:39:57.340Z,3.48
2019-01-17T07:40:57.348Z,3.51
2019-01-17T07:41:57.464Z,3.41
2019-01-17T07:42:57.506Z,3.45
2019-01-17T07:43:57.302Z,3.44
2019-01-17T07:44:57.290Z,3.47
2019-01-17T07:45:57.307Z,3.50
2019-01-17T07:46:57.262Z,3.37
2019-01-17T07:47:57.272Z,3.45
2019-01-17T07:48:57.283Z,3.53
2019-01-17T07:49:57.228Z,3.36
2019-01-17T07:50:57.228Z,3.29
2019-01-17T07:51:57.222Z,3.34
2019-01-17T07:52:57.209Z,3.42
2019-01-17T07:53:57.180Z,3.40
2019-01-17T07:54:57.178Z,3.22
2019-01-17T07:55:57.192Z,3.22
2019-01-17T07:56:57.175Z,3.18
2019-01-17T07:57:57.136Z,3.19
2019-01-17T07:58:57.124Z,3.14
2019-01-17T07:59:57.133Z,3.08
2019-01-17T08:00:57.122Z,3.00
2019-01-17T08:01:57.092Z,3.04
2019-01-17T08:02:57.088Z,3.01
2019-01-17T08:03:57.283Z,3.08
2019-01-17T08:04:57.078Z,3.04
2019-01-17T08:05:57.071Z,3.14
2019-01-17T08:06:57.038Z,3.05
2019-01-17T08:07:57.029Z,3.04
2019-01-17T08:08:57.019Z,3.01
2019-01-17T08:09:57.013Z,3.08
2019-01-17T08:10:57.025Z,3.10
2019-01-17T08:11:57.005Z,3.16
2019-01-17T08:12:56.973Z,3.23
2019-01-17T08:13:56.987Z,3.18
2019-01-17T08:14:56.954Z,3.16
2019-01-17T08:15:58.023Z,3.19
2019-01-17T08:16:56.940Z,3.28
2019-01-17T08:17:56.946Z,3.36
2019-01-17T08:18:56.927Z,3.26
2019-01-17T08:19:56.929Z,3.36
2019-01-17T08:20:56.886Z,3.51
2019-01-17T08:21:56.900Z,3.32
2019-01-17T08:22:56.868Z,3.50
2019-01-17T08:23:56.872Z,3.37
2019-01-17T08:24:56.884Z,3.48
2019-01-17T08:25:56.835Z,3.51
2019-01-17T08:26:56.843Z,3.44
2019-01-17T08:27:56.811Z,3.42
2019-01-17T08:28:56.806Z,3.45
2019-01-17T08:29:56.802Z,3.44
2019-01-17T08:30:56.778Z,3.53
2019-01-17T08:31:56.782Z,3.63
2019-01-17T08:32:56.757Z,3.63
2019-01-17T08:33:56.757Z,3.55
2019-01-17T08:34:56.737Z,3.65
2019-01-17T08:35:56.757Z,3.65
2019-01-17T08:36:56.763Z,3.65
2019-01-17T08:37:56.710Z,3.68
2019-01-17T08:38:56.696Z,3.69
2019-01-17T08:39:56.688Z,3.70
2019-01-17T08:40:56.675Z,3.73
2019-01-17T08:41:56.665Z,3.73
2019-01-17T08:42:56.687Z,3.66
2019-01-17T08:43:56.657Z,3.68
2019-01-17T08:44:56.663Z,3.73
2019-01-17T08:45:56.633Z,3.73
2019-01-17T08:46:56.629Z,3.81
2019-01-17T08:47:56.676Z,3.88
2019-01-17T08:48:56.623Z,3.83
2019-01-17T08:49:56.589Z,3.84
2019-01-17T08:50:56.587Z,3.87
2019-01-17T08:51:56.579Z,3.81
2019-01-17T08:52:56.563Z,3.80
2019-01-17T08:53:56.600Z,3.91
2019-01-17T08:54:56.549Z,3.84
2019-01-17T08:56:00.801Z,3.84
2019-01-17T08:56:56.528Z,3.86
2019-01-17T08:57:56.507Z,3.94
2019-01-17T08:58:56.502Z,3.91
2019-01-17T08:59:56.478Z,3.87
2019-01-17T09:00:56.496Z,3.91
2019-01-17T09:01:56.490Z,3.95
2019-01-17T09:02:56.448Z,4.04
2019-01-17T09:03:56.518Z,3.99
2019-01-17T09:04:56.436Z,3.94
2019-01-17T09:05:56.426Z,3.83
2019-01-17T09:06:56.423Z,3.80
2019-01-17T09:07:56.405Z,3.91
2019-01-17T09:08:56.390Z,3.84
2019-01-17T09:09:56.383Z,3.87
2019-01-17T09:10:56.371Z,3.81
2019-01-17T09:11:56.369Z,3.94
2019-01-17T09:12:56.347Z,3.84
2019-01-17T09:13:56.384Z,3.86
2019-01-17T09:14:56.321Z,3.83
2019-01-17T09:15:56.333Z,3.96
2019-01-17T09:16:56.326Z,3.84
2019-01-17T09:17:56.282Z,3.99
2019-01-17T09:18:56.286Z,3.86
2019-01-17T09:19:56.296Z,3.99
2019-01-17T09:20:56.267Z,4.04
2019-01-17T09:21:56.254Z,3.98
2019-01-17T09:22:56.298Z,4.02
2019-01-17T09:23:56.235Z,3.96
2019-01-17T09:24:56.254Z,4.10
2019-01-17T09:25:56.206Z,4.06
2019-01-17T09:26:56.208Z,4.05
2019-01-17T09:27:56.211Z,3.95
2019-01-17T09:28:56.238Z,4.06
2019-01-17T09:29:56.180Z,4.10
2019-01-17T09:30:56.152Z,4.10
2019-01-17T09:31:56.164Z,4.13
2019-01-17T09:32:56.128Z,4.12
2019-01-17T09:33:56.117Z,4.05
2019-01-17T09:34:56.129Z,4.08
2019-01-17T09:35:56.103Z,4.10
2019-01-17T09:36:56.112Z,4.10
2019-01-17T09:37:56.103Z,4.05
2019-01-17T09:38:56.070Z,4.10
2019-01-17T09:39:56.060Z,4.05
2019-01-17T09:40:56.046Z,4.05
2019-01-17T09:41:56.050Z,4.13
2019-01-17T09:42:56.043Z,4.13
2019-01-17T09:43:56.016Z,4.06
2019-01-17T09:44:56.023Z,4.14
2019-01-17T09:45:55.991Z,4.17
2019-01-17T09:46:55.988Z,4.14
2019-01-17T09:47:55.999Z,4.14
2019-01-17T09:48:55.952Z,4.20
2019-01-17T09:49:56.145Z,4.26
2019-01-17T09:50:55.937Z,4.23
2019-01-17T09:51:55.947Z,4.38
2019-01-17T09:52:55.939Z,4.37
2019-01-17T09:53:55.919Z,4.34
2019-01-17T09:54:55.901Z,4.45
2019-01-17T09:55:55.882Z,4.45
2019-01-17T09:56:55.918Z,4.50
2019-01-17T09:57:55.895Z,4.50
2019-01-17T09:58:55.871Z,4.48
2019-01-17T09:59:55.852Z,4.52
2019-01-17T10:00:55.844Z,4.44
2019-01-17T10:01:55.827Z,4.35
2019-01-17T10:02:55.843Z,4.30
2019-01-17T10:03:55.820Z,4.31
2019-01-17T10:04:55.833Z,4.31
2019-01-17T10:05:55.777Z,4.28
2019-01-17T10:06:55.806Z,4.22
2019-01-17T10:07:55.780Z,4.19
2019-01-17T10:08:55.747Z,4.20
2019-01-17T10:09:55.748Z,4.30
2019-01-17T10:10:55.786Z,4.28
2019-01-17T10:11:55.711Z,4.26
2019-01-17T10:12:55.698Z,4.26
2019-01-17T10:13:55.709Z,4.30
2019-01-17T10:14:55.681Z,4.22
2019-01-17T10:15:55.694Z,4.26
2019-01-17T10:16:55.658Z,4.17
2019-01-17T10:17:55.649Z,4.20
2019-01-17T10:18:55.635Z,4.20
2019-01-17T10:19:55.709Z,4.13
2019-01-17T10:20:55.614Z,4.08
2019-01-17T10:21:55.602Z,4.13
2019-01-17T10:22:55.610Z,4.16
2019-01-17T10:23:55.583Z,4.05
2019-01-17T10:24:55.568Z,4.19
2019-01-17T10:25:55.582Z,4.14
2019-01-17T10:26:55.553Z,4.10
2019-01-17T10:27:55.545Z,4.10
2019-01-17T10:28:55.542Z,4.06
2019-01-17T10:29:55.524Z,4.05
2019-01-17T10:30:55.513Z,4.10
2019-01-17T10:31:55.579Z,4.10
2019-01-17T10:32:55.485Z,4.02
2019-01-17T10:33:55.474Z,4.05
2019-01-17T10:34:55.495Z,4.05
2019-01-17T10:35:55.455Z,4.12
2019-01-17T10:36:55.445Z,4.06
2019-01-17T10:37:55.449Z,4.06
2019-01-17T10:38:55.425Z,4.06
2019-01-17T10:39:55.416Z,4.02
2019-01-17T10:40:55.418Z,3.96
2019-01-17T10:41:55.427Z,4.05
2019-01-17T10:42:55.559Z,3.96
2019-01-17T10:43:55.366Z,3.94
2019-01-17T10:44:55.356Z,3.96
2019-01-17T10:45:55.376Z,3.80
2019-01-17T10:46:55.339Z,3.81
2019-01-17T10:48:00.187Z,3.91
2019-01-17T10:48:56.318Z,3.87
2019-01-17T10:49:55.305Z,3.87
2019-01-17T10:50:55.297Z,3.92
2019-01-17T10:51:55.282Z,3.94
2019-01-17T10:52:55.498Z,3.95
2019-01-17T10:53:55.301Z,4.04
2019-01-17T10:54:55.256Z,3.99
2019-01-17T10:55:55.239Z,3.96
2019-01-17T10:56:55.231Z,3.96
2019-01-17T10:57:55.218Z,3.92
2019-01-17T10:58:55.217Z,3.96
2019-01-17T10:59:55.233Z,3.98
2019-01-17T11:00:55.204Z,3.98
2019-01-17T11:01:55.175Z,3.87
2019-01-17T11:02:55.166Z,3.95
2019-01-17T11:03:55.154Z,3.84
2019-01-17T11:04:55.147Z,3.88
2019-01-17T11:05:55.155Z,3.80
2019-01-17T11:06:55.131Z,3.84
2019-01-17T11:07:55.125Z,3.81
2019-01-17T11:08:55.126Z,3.84
2019-01-17T11:09:55.094Z,3.78
2019-01-17T11:10:55.093Z,3.73
2019-01-17T11:11:55.094Z,3.70
2019-01-17T11:12:55.162Z,3.68
2019-01-17T11:13:55.079Z,3.65
2019-01-17T11:14:55.068Z,3.73
2019-01-17T11:15:55.041Z,3.65
2019-01-17T11:16:55.080Z,3.81
2019-01-17T11:17:55.060Z,3.58
2019-01-17T11:18:55.027Z,3.56
2019-01-17T11:19:55.023Z,3.59
2019-01-17T11:20:54.986Z,3.69
2019-01-17T11:21:54.969Z,3.65
2019-01-17T11:22:55.002Z,3.68
2019-01-17T11:23:54.976Z,3.73
2019-01-17T11:24:54.940Z,3.69
2019-01-17T11:25:54.944Z,3.73
2019-01-17T11:26:54.916Z,3.78
2019-01-17T11:27:54.955Z,3.66
2019-01-17T11:28:55.027Z,3.77
2019-01-17T11:29:54.949Z,3.68
2019-01-17T11:30:54.881Z,3.73
2019-01-17T11:31:54.888Z,3.73
2019-01-17T11:32:54.859Z,3.66
2019-01-17T11:33:54.836Z,3.74
2019-01-17T11:34:54.854Z,3.80
2019-01-17T11:35:54.833Z,3.68
2019-01-17T11:36:54.812Z,3.69
2019-01-17T11:37:54.801Z,3.69
2019-01-17T11:38:54.797Z,3.68
2019-01-17T11:39:54.815Z,3.68
2019-01-17T11:40:54.833Z,3.66
2019-01-17T11:41:54.793Z,3.69
2019-01-17T11:42:54.801Z,3.63
2019-01-17T11:43:54.827Z,3.70
2019-01-17T11:44:54.723Z,3.70
2019-01-17T11:45:54.726Z,3.68
2019-01-17T11:46:54.764Z,3.68
2019-01-17T11:47:54.720Z,3.68
2019-01-17T11:48:54.678Z,3.78
2019-01-17T11:49:54.697Z,3.77
2019-01-17T11:50:54.664Z,3.77
2019-01-17T11:51:54.653Z,3.66
2019-01-17T11:52:54.687Z,3.68
2019-01-17T11:53:54.643Z,3.63
2019-01-17T11:54:54.624Z,3.55
2019-01-17T11:55:54.606Z,3.59
2019-01-17T11:56:54.714Z,3.59
2019-01-17T11:57:54.601Z,3.59
2019-01-17T11:58:59.945Z,3.59
2019-01-17T11:59:55.596Z,3.53
2019-01-17T12:00:54.567Z,3.62
2019-01-17T12:01:54.576Z,3.58
2019-01-17T12:02:54.561Z,3.59
2019-01-17T12:03:54.541Z,3.51
2019-01-17T12:04:54.533Z,3.55
2019-01-17T12:05:54.527Z,3.47
2019-01-17T12:06:54.524Z,3.55
2019-01-17T12:07:54.526Z,3.51
2019-01-17T12:08:54.528Z,3.53
2019-01-17T12:09:54.485Z,3.45
2019-01-17T12:10:54.481Z,3.44
2019-01-17T12:11:54.555Z,3.42
2019-01-17T12:12:54.462Z,3.42
2019-01-17T12:13:54.429Z,3.48
2019-01-17T12:14:54.408Z,3.47
2019-01-17T12:15:54.416Z,3.44
2019-01-17T12:16:54.398Z,3.51
2019-01-17T12:17:54.438Z,3.51
2019-01-17T12:18:54.403Z,3.56
2019-01-17T12:19:54.366Z,3.51
2019-01-17T12:20:54.358Z,3.44
2019-01-17T12:21:54.346Z,3.42
2019-01-17T12:22:54.354Z,3.47
2019-01-17T12:23:54.314Z,3.55
2019-01-17T12:24:54.330Z,3.37
2019-01-17T12:25:54.305Z,3.58
2019-01-17T12:26:54.303Z,3.44
2019-01-17T12:27:54.275Z,3.37
2019-01-17T12:28:54.268Z,3.50
2019-01-17T12:29:54.254Z,3.41
2019-01-17T12:30:54.237Z,3.40
2019-01-17T12:31:54.240Z,3.45
2019-01-17T12:32:54.220Z,3.48
2019-01-17T12:33:54.231Z,3.47
2019-01-17T12:34:54.217Z,3.47
2019-01-17T12:35:54.182Z,3.44
2019-01-17T12:36:54.172Z,3.45
2019-01-17T12:37:54.163Z,3.50
2019-01-17T12:38:54.169Z,3.41
2019-01-17T12:39:54.176Z,3.41
2019-01-17T12:40:54.181Z,3.34
2019-01-17T12:41:54.130Z,3.40
2019-01-17T12:42:54.106Z,3.28
2019-01-17T12:43:54.101Z,3.32
2019-01-17T12:44:54.126Z,3.29
2019-01-17T12:45:54.089Z,3.34
2019-01-17T12:46:54.097Z,3.41
2019-01-17T12:47:54.068Z,3.44
2019-01-17T12:48:54.044Z,3.32
2019-01-17T12:49:54.074Z,3.41
2019-01-17T12:50:54.042Z,3.44
2019-01-17T12:51:54.046Z,3.41
2019-01-17T12:52:54.021Z,3.36
2019-01-17T12:53:54.006Z,3.37
2019-01-17T12:54:54.015Z,3.41
2019-01-17T12:55:53.979Z,3.29
2019-01-17T12:56:54.324Z,3.31
2019-01-17T12:57:53.992Z,3.18
2019-01-17T12:58:54.165Z,3.26
2019-01-17T12:59:54.051Z,3.28
2019-01-17T13:00:53.920Z,3.21
2019-01-17T13:01:53.925Z,3.16
2019-01-17T13:02:53.898Z,3.22
2019-01-17T13:03:53.889Z,3.18
2019-01-17T13:04:53.956Z,3.14
2019-01-17T13:05:53.877Z,3.14
2019-01-17T13:06:53.890Z,3.13
2019-01-17T13:07:53.843Z,3.19
2019-01-17T13:08:53.878Z,3.16
2019-01-17T13:09:53.827Z,3.23
2019-01-17T13:10:53.901Z,3.18
2019-01-17T13:11:53.823Z,3.14
2019-01-17T13:12:53.808Z,3.14
2019-01-17T13:13:53.793Z,3.18
2019-01-17T13:14:53.834Z,3.21
2019-01-17T13:15:53.902Z,3.08
2019-01-17T13:16:53.782Z,3.03
2019-01-17T13:17:53.741Z,3.10